sensor_id;sensor_type;location;lat;lon;timestamp;P1;durP1;ratioP1;P2;durP2;ratioP2
9094;SDS011;4583;49.796;9.902;2022-07-26T00:02:06;3.87;;;2.50;;
9094;SDS011;4583;49.796;9.902;2022-07-26T00:12:08;8.83;;;3.20;;
9094;SDS011;4583;49.796;9.902;2022-07-26T00:22:10;5.30;;;2.63;;
9094;SDS011;4583;49.796;9.902;2022-07-26T00:32:48;5.37;;;2.93;;
9094;SDS011;4583;49.796;9.902;2022-07-26T00:42:50;5.97;;;2.40;;
9094;SDS011;4583;49.796;9.902;2022-07-26T00:52:52;8.97;;;2.63;;
9094;SDS011;4583;49.796;9.902;2022-07-26T01:02:55;6.43;;;3.07;;
9094;SDS011;4583;49.796;9.902;2022-07-26T01:12:58;4.80;;;2.60;;
9094;SDS011;4583;49.796;9.902;2022-07-26T01:23:00;5.60;;;2.43;;
9094;SDS011;4583;49.796;9.902;2022-07-26T01:33:02;5.93;;;2.23;;
9094;SDS011;4583;49.796;9.902;2022-07-26T01:43:07;17.03;;;2.90;;
9094;SDS011;4583;49.796;9.902;2022-07-26T01:53:08;11.10;;;2.70;;
9094;SDS011;4583;49.796;9.902;2022-07-26T02:03:10;5.07;;;2.77;;
9094;SDS011;4583;49.796;9.902;2022-07-26T02:13:12;7.90;;;2.70;;
9094;SDS011;4583;49.796;9.902;2022-07-26T02:23:14;5.03;;;2.83;;
9094;SDS011;4583;49.796;9.902;2022-07-26T02:33:16;5.30;;;2.53;;
9094;SDS011;4583;49.796;9.902;2022-07-26T02:43:18;4.47;;;2.57;;
9094;SDS011;4583;49.796;9.902;2022-07-26T02:53:20;5.37;;;2.87;;
9094;SDS011;4583;49.796;9.902;2022-07-26T03:03:22;8.67;;;2.97;;
9094;SDS011;4583;49.796;9.902;2022-07-26T03:13:24;5.00;;;2.90;;
9094;SDS011;4583;49.796;9.902;2022-07-26T03:23:25;8.50;;;3.47;;
9094;SDS011;4583;49.796;9.902;2022-07-26T03:33:28;9.53;;;3.20;;
9094;SDS011;4583;49.796;9.902;2022-07-26T03:43:30;4.60;;;3.00;;
9094;SDS011;4583;49.796;9.902;2022-07-26T03:53:36;8.33;;;3.33;;
9094;SDS011;4583;49.796;9.902;2022-07-26T04:03:38;3.97;;;2.93;;
9094;SDS011;4583;49.796;9.902;2022-07-26T04:13:47;5.13;;;3.13;;
9094;SDS011;4583;49.796;9.902;2022-07-26T04:23:49;7.67;;;3.50;;
9094;SDS011;4583;49.796;9.902;2022-07-26T04:33:52;22.73;;;3.67;;
9094;SDS011;4583;49.796;9.902;2022-07-26T04:43:53;8.60;;;3.53;;
9094;SDS011;4583;49.796;9.902;2022-07-26T04:53:56;24.83;;;4.30;;
9094;SDS011;4583;49.796;9.902;2022-07-26T05:03:58;12.70;;;3.67;;
9094;SDS011;4583;49.796;9.902;2022-07-26T05:13:59;11.10;;;4.10;;
9094;SDS011;4583;49.796;9.902;2022-07-26T05:24:01;15.20;;;4.13;;
9094;SDS011;4583;49.796;9.902;2022-07-26T05:34:07;18.83;;;4.70;;
9094;SDS011;4583;49.796;9.902;2022-07-26T05:44:10;7.73;;;4.00;;
9094;SDS011;4583;49.796;9.902;2022-07-26T05:54:12;8.70;;;3.90;;
9094;SDS011;4583;49.796;9.902;2022-07-26T06:04:13;16.97;;;5.20;;
9094;SDS011;4583;49.796;9.902;2022-07-26T06:14:15;16.23;;;4.00;;
9094;SDS011;4583;49.796;9.902;2022-07-26T06:24:17;11.20;;;3.67;;
9094;SDS011;4583;49.796;9.902;2022-07-26T06:34:19;9.63;;;3.30;;
9094;SDS011;4583;49.796;9.902;2022-07-26T06:44:20;7.83;;;2.80;;
9094;SDS011;4583;49.796;9.902;2022-07-26T06:54:23;7.40;;;2.63;;
9094;SDS011;4583;49.796;9.902;2022-07-26T07:04:24;7.87;;;2.60;;
9094;SDS011;4583;49.796;9.902;2022-07-26T07:14:26;6.87;;;2.73;;
9094;SDS011;4583;49.796;9.902;2022-07-26T07:24:28;5.00;;;2.27;;
9094;SDS011;4583;49.796;9.902;2022-07-26T07:34:31;5.20;;;2.53;;
9094;SDS011;4583;49.796;9.902;2022-07-26T07:44:33;7.33;;;3.13;;
9094;SDS011;4583;49.796;9.902;2022-07-26T07:54:35;12.57;;;3.07;;
9094;SDS011;4583;49.796;9.902;2022-07-26T08:04:37;10.17;;;2.20;;
9094;SDS011;4583;49.796;9.902;2022-07-26T08:14:39;4.10;;;2.10;;
9094;SDS011;4583;49.796;9.902;2022-07-26T08:24:41;6.90;;;1.83;;
9094;SDS011;4583;49.796;9.902;2022-07-26T08:34:45;8.23;;;2.30;;
9094;SDS011;4583;49.796;9.902;2022-07-26T08:44:47;6.37;;;2.00;;
9094;SDS011;4583;49.796;9.902;2022-07-26T08:54:50;8.90;;;2.00;;
9094;SDS011;4583;49.796;9.902;2022-07-26T09:04:52;7.33;;;1.80;;
9094;SDS011;4583;49.796;9.902;2022-07-26T09:15:06;4.03;;;1.40;;
9094;SDS011;4583;49.796;9.902;2022-07-26T09:25:20;4.83;;;1.57;;
9094;SDS011;4583;49.796;9.902;2022-07-26T09:35:23;7.77;;;1.50;;
9094;SDS011;4583;49.796;9.902;2022-07-26T09:45:46;2.00;;;1.10;;
9094;SDS011;4583;49.796;9.902;2022-07-26T09:56:04;3.37;;;1.30;;
9094;SDS011;4583;49.796;9.902;2022-07-26T10:06:06;2.43;;;1.13;;
9094;SDS011;4583;49.796;9.902;2022-07-26T10:16:25;3.77;;;1.20;;
9094;SDS011;4583;49.796;9.902;2022-07-26T10:36:36;2.77;;;1.20;;
9094;SDS011;4583;49.796;9.902;2022-07-26T10:57:09;1.90;;;1.10;;
9094;SDS011;4583;49.796;9.902;2022-07-26T11:07:11;4.00;;;1.50;;
9094;SDS011;4583;49.796;9.902;2022-07-26T11:17:26;4.13;;;1.30;;
9094;SDS011;4583;49.796;9.902;2022-07-26T11:27:29;6.40;;;1.30;;
9094;SDS011;4583;49.796;9.902;2022-07-26T11:37:31;6.50;;;1.30;;
9094;SDS011;4583;49.796;9.902;2022-07-26T11:47:32;5.00;;;1.70;;
9094;SDS011;4583;49.796;9.902;2022-07-26T11:57:34;5.53;;;1.40;;
9094;SDS011;4583;49.796;9.902;2022-07-26T12:07:36;11.77;;;2.37;;
9094;SDS011;4583;49.796;9.902;2022-07-26T12:17:38;6.17;;;1.37;;
9094;SDS011;4583;49.796;9.902;2022-07-26T12:27:58;5.53;;;1.33;;
9094;SDS011;4583;49.796;9.902;2022-07-26T12:38:00;2.10;;;1.30;;
9094;SDS011;4583;49.796;9.902;2022-07-26T12:48:06;5.90;;;1.30;;
9094;SDS011;4583;49.796;9.902;2022-07-26T12:58:11;3.90;;;1.43;;
9094;SDS011;4583;49.796;9.902;2022-07-26T13:08:12;2.77;;;1.30;;
9094;SDS011;4583;49.796;9.902;2022-07-26T13:18:14;1.70;;;1.30;;
9094;SDS011;4583;49.796;9.902;2022-07-26T13:28:16;2.90;;;1.57;;
9094;SDS011;4583;49.796;9.902;2022-07-26T13:38:17;4.17;;;1.30;;
9094;SDS011;4583;49.796;9.902;2022-07-26T13:48:20;6.77;;;1.70;;
9094;SDS011;4583;49.796;9.902;2022-07-26T13:58:22;6.40;;;3.73;;
9094;SDS011;4583;49.796;9.902;2022-07-26T14:08:23;6.17;;;1.50;;
9094;SDS011;4583;49.796;9.902;2022-07-26T14:18:25;5.83;;;1.80;;
9094;SDS011;4583;49.796;9.902;2022-07-26T14:28:27;4.40;;;1.23;;
9094;SDS011;4583;49.796;9.902;2022-07-26T14:38:28;3.23;;;1.70;;
9094;SDS011;4583;49.796;9.902;2022-07-26T14:48:30;4.30;;;1.50;;
9094;SDS011;4583;49.796;9.902;2022-07-26T14:58:52;9.00;;;1.60;;
9094;SDS011;4583;49.796;9.902;2022-07-26T15:08:54;2.07;;;1.20;;
9094;SDS011;4583;49.796;9.902;2022-07-26T15:18:55;2.07;;;1.40;;
9094;SDS011;4583;49.796;9.902;2022-07-26T15:28:57;3.00;;;1.60;;
9094;SDS011;4583;49.796;9.902;2022-07-26T15:38:59;5.93;;;1.57;;
9094;SDS011;4583;49.796;9.902;2022-07-26T15:49:17;1.90;;;1.20;;
9094;SDS011;4583;49.796;9.902;2022-07-26T15:59:19;4.07;;;2.00;;
9094;SDS011;4583;49.796;9.902;2022-07-26T16:09:20;7.03;;;1.57;;
9094;SDS011;4583;49.796;9.902;2022-07-26T16:19:22;4.80;;;1.60;;
9094;SDS011;4583;49.796;9.902;2022-07-26T16:29:24;3.43;;;1.57;;
9094;SDS011;4583;49.796;9.902;2022-07-26T16:39:26;2.47;;;1.30;;
9094;SDS011;4583;49.796;9.902;2022-07-26T16:49:27;2.93;;;1.40;;
9094;SDS011;4583;49.796;9.902;2022-07-26T16:59:29;1.33;;;1.20;;
9094;SDS011;4583;49.796;9.902;2022-07-26T17:09:31;6.00;;;1.60;;
9094;SDS011;4583;49.796;9.902;2022-07-26T17:19:33;2.37;;;1.50;;
9094;SDS011;4583;49.796;9.902;2022-07-26T17:29:35;4.97;;;1.50;;
9094;SDS011;4583;49.796;9.902;2022-07-26T17:39:36;4.50;;;1.50;;
9094;SDS011;4583;49.796;9.902;2022-07-26T17:49:53;3.00;;;1.47;;
9094;SDS011;4583;49.796;9.902;2022-07-26T17:59:54;4.67;;;1.50;;
9094;SDS011;4583;49.796;9.902;2022-07-26T18:09:56;4.77;;;1.90;;
9094;SDS011;4583;49.796;9.902;2022-07-26T18:19:58;4.10;;;1.60;;
9094;SDS011;4583;49.796;9.902;2022-07-26T18:30:01;3.60;;;1.60;;
9094;SDS011;4583;49.796;9.902;2022-07-26T18:40:03;2.27;;;1.30;;
9094;SDS011;4583;49.796;9.902;2022-07-26T18:50:06;1.67;;;1.50;;
9094;SDS011;4583;49.796;9.902;2022-07-26T19:00:10;7.47;;;1.80;;
9094;SDS011;4583;49.796;9.902;2022-07-26T19:10:17;4.10;;;1.90;;
9094;SDS011;4583;49.796;9.902;2022-07-26T19:20:20;5.10;;;1.70;;
9094;SDS011;4583;49.796;9.902;2022-07-26T19:30:22;3.20;;;2.13;;
9094;SDS011;4583;49.796;9.902;2022-07-26T19:40:23;1.80;;;1.70;;
9094;SDS011;4583;49.796;9.902;2022-07-26T19:50:25;3.47;;;1.77;;
9094;SDS011;4583;49.796;9.902;2022-07-26T20:00:27;6.13;;;2.63;;
9094;SDS011;4583;49.796;9.902;2022-07-26T20:10:29;2.73;;;1.63;;
9094;SDS011;4583;49.796;9.902;2022-07-26T20:20:32;7.83;;;2.63;;
9094;SDS011;4583;49.796;9.902;2022-07-26T20:30:34;5.40;;;2.63;;
9094;SDS011;4583;49.796;9.902;2022-07-26T20:40:36;5.70;;;2.33;;
9094;SDS011;4583;49.796;9.902;2022-07-26T20:50:39;4.93;;;2.80;;
9094;SDS011;4583;49.796;9.902;2022-07-26T21:00:41;4.87;;;3.30;;
9094;SDS011;4583;49.796;9.902;2022-07-26T21:10:44;4.17;;;3.00;;
9094;SDS011;4583;49.796;9.902;2022-07-26T21:20:47;4.97;;;3.33;;
9094;SDS011;4583;49.796;9.902;2022-07-26T21:30:49;9.90;;;6.33;;
9094;SDS011;4583;49.796;9.902;2022-07-26T21:40:50;9.87;;;3.70;;
9094;SDS011;4583;49.796;9.902;2022-07-26T21:50:52;3.50;;;2.97;;
9094;SDS011;4583;49.796;9.902;2022-07-26T22:00:54;7.27;;;2.73;;
9094;SDS011;4583;49.796;9.902;2022-07-26T22:11:07;4.20;;;2.90;;
9094;SDS011;4583;49.796;9.902;2022-07-26T22:21:09;3.80;;;3.03;;
9094;SDS011;4583;49.796;9.902;2022-07-26T22:31:11;4.30;;;2.80;;
9094;SDS011;4583;49.796;9.902;2022-07-26T22:41:13;4.83;;;2.93;;
9094;SDS011;4583;49.796;9.902;2022-07-26T22:51:15;3.53;;;3.20;;
9094;SDS011;4583;49.796;9.902;2022-07-26T23:01:16;4.23;;;2.90;;
9094;SDS011;4583;49.796;9.902;2022-07-26T23:11:19;4.93;;;3.20;;
9094;SDS011;4583;49.796;9.902;2022-07-26T23:21:20;3.23;;;2.90;;
9094;SDS011;4583;49.796;9.902;2022-07-26T23:31:22;6.73;;;2.90;;
9094;SDS011;4583;49.796;9.902;2022-07-26T23:41:24;4.80;;;3.13;;
9094;SDS011;4583;49.796;9.902;2022-07-26T23:51:26;7.73;;;2.80;;
